sensor_id;sensor_type;location;lat;lon;timestamp;P1;durP1;ratioP1;P2;durP2;ratioP2
43226;SDS011;28839;52.404;9.808;2023-04-01T00:05:50;9.02;;;1.90;;
43226;SDS011;28839;52.404;9.808;2023-04-01T00:12:44;4.85;;;1.60;;
43226;SDS011;28839;52.404;9.808;2023-04-01T00:19:39;5.12;;;2.17;;
43226;SDS011;28839;52.404;9.808;2023-04-01T00:26:33;7.37;;;2.47;;
43226;SDS011;28839;52.404;9.808;2023-04-01T00:33:27;5.17;;;1.80;;
43226;SDS011;28839;52.404;9.808;2023-04-01T00:47:19;8.15;;;2.00;;
43226;SDS011;28839;52.404;9.808;2023-04-01T00:54:14;3.20;;;1.58;;
43226;SDS011;28839;52.404;9.808;2023-04-01T01:01:10;5.68;;;1.50;;
43226;SDS011;28839;52.404;9.808;2023-04-01T01:08:07;4.35;;;1.73;;
43226;SDS011;28839;52.404;9.808;2023-04-01T01:15:10;6.12;;;1.70;;
43226;SDS011;28839;52.404;9.808;2023-04-01T01:22:16;5.30;;;1.10;;
43226;SDS011;28839;52.404;9.808;2023-04-01T01:29:39;3.03;;;1.10;;
43226;SDS011;28839;52.404;9.808;2023-04-01T01:36:55;3.50;;;1.00;;
43226;SDS011;28839;52.404;9.808;2023-04-01T01:43:53;2.97;;;0.90;;
43226;SDS011;28839;52.404;9.808;2023-04-01T01:50:49;2.90;;;0.95;;
43226;SDS011;28839;52.404;9.808;2023-04-01T01:57:45;3.30;;;0.80;;
43226;SDS011;28839;52.404;9.808;2023-04-01T02:04:39;3.58;;;1.10;;
43226;SDS011;28839;52.404;9.808;2023-04-01T02:11:37;4.57;;;1.20;;
43226;SDS011;28839;52.404;9.808;2023-04-01T02:18:38;5.07;;;1.30;;
43226;SDS011;28839;52.404;9.808;2023-04-01T02:25:34;2.72;;;1.27;;
43226;SDS011;28839;52.404;9.808;2023-04-01T02:32:30;4.82;;;1.30;;
43226;SDS011;28839;52.404;9.808;2023-04-01T02:39:27;1.83;;;1.25;;
43226;SDS011;28839;52.404;9.808;2023-04-01T02:46:21;2.87;;;1.27;;
43226;SDS011;28839;52.404;9.808;2023-04-01T02:53:16;4.03;;;0.90;;
43226;SDS011;28839;52.404;9.808;2023-04-01T03:00:12;5.18;;;1.20;;
43226;SDS011;28839;52.404;9.808;2023-04-01T03:07:07;4.15;;;0.85;;
43226;SDS011;28839;52.404;9.808;2023-04-01T03:14:01;7.22;;;1.20;;
43226;SDS011;28839;52.404;9.808;2023-04-01T03:20:57;3.72;;;1.08;;
43226;SDS011;28839;52.404;9.808;2023-04-01T03:28:04;4.32;;;1.60;;
43226;SDS011;28839;52.404;9.808;2023-04-01T03:34:58;2.33;;;0.85;;
43226;SDS011;28839;52.404;9.808;2023-04-01T03:41:53;6.43;;;1.62;;
43226;SDS011;28839;52.404;9.808;2023-04-01T03:48:47;5.00;;;2.30;;
43226;SDS011;28839;52.404;9.808;2023-04-01T03:55:41;5.37;;;1.98;;
43226;SDS011;28839;52.404;9.808;2023-04-01T04:02:36;5.03;;;1.45;;
43226;SDS011;28839;52.404;9.808;2023-04-01T04:09:30;4.18;;;1.65;;
43226;SDS011;28839;52.404;9.808;2023-04-01T04:16:24;6.78;;;1.60;;
43226;SDS011;28839;52.404;9.808;2023-04-01T04:23:19;3.40;;;1.30;;
43226;SDS011;28839;52.404;9.808;2023-04-01T04:30:13;4.93;;;1.23;;
43226;SDS011;28839;52.404;9.808;2023-04-01T04:37:07;5.33;;;1.93;;
43226;SDS011;28839;52.404;9.808;2023-04-01T04:44:02;5.62;;;1.55;;
43226;SDS011;28839;52.404;9.808;2023-04-01T04:50:57;5.00;;;1.73;;
43226;SDS011;28839;52.404;9.808;2023-04-01T04:57:51;2.95;;;1.40;;
43226;SDS011;28839;52.404;9.808;2023-04-01T05:04:46;6.75;;;1.73;;
43226;SDS011;28839;52.404;9.808;2023-04-01T05:11:40;4.55;;;1.50;;
43226;SDS011;28839;52.404;9.808;2023-04-01T05:18:34;5.65;;;1.48;;
43226;SDS011;28839;52.404;9.808;2023-04-01T05:25:29;5.05;;;1.70;;
43226;SDS011;28839;52.404;9.808;2023-04-01T05:32:23;6.05;;;1.50;;
43226;SDS011;28839;52.404;9.808;2023-04-01T05:39:16;3.50;;;1.50;;
43226;SDS011;28839;52.404;9.808;2023-04-01T05:46:12;2.83;;;1.30;;
43226;SDS011;28839;52.404;9.808;2023-04-01T05:53:05;1.42;;;1.10;;
43226;SDS011;28839;52.404;9.808;2023-04-01T05:59:59;4.75;;;1.52;;
43226;SDS011;28839;52.404;9.808;2023-04-01T06:06:54;3.72;;;1.35;;
43226;SDS011;28839;52.404;9.808;2023-04-01T06:13:56;3.05;;;1.65;;
43226;SDS011;28839;52.404;9.808;2023-04-01T06:21:03;3.05;;;1.23;;
43226;SDS011;28839;52.404;9.808;2023-04-01T06:28:14;4.47;;;1.57;;
43226;SDS011;28839;52.404;9.808;2023-04-01T06:35:35;4.53;;;1.62;;
43226;SDS011;28839;52.404;9.808;2023-04-01T06:42:50;3.15;;;1.80;;
43226;SDS011;28839;52.404;9.808;2023-04-01T06:49:55;3.72;;;1.60;;
43226;SDS011;28839;52.404;9.808;2023-04-01T06:56:54;4.50;;;1.83;;
43226;SDS011;28839;52.404;9.808;2023-04-01T07:03:55;5.10;;;1.30;;
43226;SDS011;28839;52.404;9.808;2023-04-01T07:10:55;5.22;;;1.55;;
43226;SDS011;28839;52.404;9.808;2023-04-01T07:17:55;4.00;;;1.75;;
43226;SDS011;28839;52.404;9.808;2023-04-01T07:24:53;4.57;;;1.50;;
43226;SDS011;28839;52.404;9.808;2023-04-01T07:31:56;4.30;;;1.70;;
43226;SDS011;28839;52.404;9.808;2023-04-01T07:39:17;1.98;;;1.37;;
43226;SDS011;28839;52.404;9.808;2023-04-01T07:46:25;4.20;;;1.65;;
43226;SDS011;28839;52.404;9.808;2023-04-01T07:53:38;5.53;;;1.40;;
43226;SDS011;28839;52.404;9.808;2023-04-01T08:00:39;1.62;;;1.20;;
43226;SDS011;28839;52.404;9.808;2023-04-01T08:07:40;4.25;;;1.30;;
43226;SDS011;28839;52.404;9.808;2023-04-01T08:14:46;4.43;;;1.80;;
43226;SDS011;28839;52.404;9.808;2023-04-01T08:21:49;3.45;;;1.67;;
43226;SDS011;28839;52.404;9.808;2023-04-01T08:28:46;2.33;;;1.10;;
43226;SDS011;28839;52.404;9.808;2023-04-01T08:35:48;4.05;;;1.30;;
43226;SDS011;28839;52.404;9.808;2023-04-01T08:42:50;4.25;;;1.20;;
43226;SDS011;28839;52.404;9.808;2023-04-01T08:57:35;3.10;;;1.27;;
43226;SDS011;28839;52.404;9.808;2023-04-01T09:04:39;1.55;;;1.00;;
43226;SDS011;28839;52.404;9.808;2023-04-01T09:11:59;2.37;;;0.80;;
43226;SDS011;28839;52.404;9.808;2023-04-01T09:19:12;2.03;;;0.90;;
43226;SDS011;28839;52.404;9.808;2023-04-01T09:26:18;1.17;;;0.90;;
43226;SDS011;28839;52.404;9.808;2023-04-01T09:47:54;2.25;;;0.98;;
43226;SDS011;28839;52.404;9.808;2023-04-01T09:55:01;3.03;;;1.02;;
43226;SDS011;28839;52.404;9.808;2023-04-01T10:17:10;1.75;;;0.85;;
43226;SDS011;28839;52.404;9.808;2023-04-01T10:32:12;3.60;;;1.20;;
43226;SDS011;28839;52.404;9.808;2023-04-01T10:39:54;2.45;;;1.15;;
43226;SDS011;28839;52.404;9.808;2023-04-01T10:54:28;2.05;;;0.80;;
43226;SDS011;28839;52.404;9.808;2023-04-01T11:01:42;1.50;;;0.60;;
43226;SDS011;28839;52.404;9.808;2023-04-01T11:09:06;1.00;;;0.80;;
43226;SDS011;28839;52.404;9.808;2023-04-01T11:16:41;1.65;;;0.80;;
43226;SDS011;28839;52.404;9.808;2023-04-01T11:24:14;1.92;;;0.77;;
43226;SDS011;28839;52.404;9.808;2023-04-01T11:31:22;1.25;;;1.00;;
43226;SDS011;28839;52.404;9.808;2023-04-01T11:38:35;2.15;;;0.80;;
43226;SDS011;28839;52.404;9.808;2023-04-01T11:52:47;2.50;;;0.80;;
43226;SDS011;28839;52.404;9.808;2023-04-01T12:14:54;3.62;;;1.35;;
43226;SDS011;28839;52.404;9.808;2023-04-01T12:22:10;2.58;;;1.73;;
43226;SDS011;28839;52.404;9.808;2023-04-01T12:29:30;4.55;;;1.90;;
43226;SDS011;28839;52.404;9.808;2023-04-01T12:36:49;2.62;;;1.40;;
43226;SDS011;28839;52.404;9.808;2023-04-01T12:59:05;1.40;;;0.73;;
43226;SDS011;28839;52.404;9.808;2023-04-01T13:28:23;0.70;;;0.70;;
43226;SDS011;28839;52.404;9.808;2023-04-01T13:35:24;2.37;;;1.60;;
43226;SDS011;28839;52.404;9.808;2023-04-01T13:42:28;2.10;;;1.90;;
43226;SDS011;28839;52.404;9.808;2023-04-01T13:56:56;2.25;;;1.60;;
43226;SDS011;28839;52.404;9.808;2023-04-01T14:11:37;2.08;;;1.35;;
43226;SDS011;28839;52.404;9.808;2023-04-01T14:18:51;1.40;;;1.30;;
43226;SDS011;28839;52.404;9.808;2023-04-01T14:26:04;2.45;;;1.20;;
43226;SDS011;28839;52.404;9.808;2023-04-01T14:33:20;3.72;;;1.92;;
43226;SDS011;28839;52.404;9.808;2023-04-01T14:40:20;1.20;;;1.10;;
43226;SDS011;28839;52.404;9.808;2023-04-01T14:47:33;22.25;;;1.45;;
43226;SDS011;28839;52.404;9.808;2023-04-01T14:54:39;1.17;;;1.08;;
43226;SDS011;28839;52.404;9.808;2023-04-01T15:01:37;1.62;;;1.50;;
43226;SDS011;28839;52.404;9.808;2023-04-01T15:08:41;1.23;;;1.10;;
43226;SDS011;28839;52.404;9.808;2023-04-01T15:15:50;2.10;;;1.27;;
43226;SDS011;28839;52.404;9.808;2023-04-01T15:22:57;2.35;;;0.93;;
43226;SDS011;28839;52.404;9.808;2023-04-01T15:30:02;1.23;;;1.00;;
43226;SDS011;28839;52.404;9.808;2023-04-01T15:37:18;1.40;;;1.27;;
43226;SDS011;28839;52.404;9.808;2023-04-01T15:44:35;1.37;;;1.27;;
43226;SDS011;28839;52.404;9.808;2023-04-01T15:59:01;3.05;;;1.50;;
43226;SDS011;28839;52.404;9.808;2023-04-01T16:06:12;1.40;;;1.30;;
43226;SDS011;28839;52.404;9.808;2023-04-01T16:13:28;2.22;;;1.10;;
43226;SDS011;28839;52.404;9.808;2023-04-01T16:20:42;29.75;;;2.90;;
43226;SDS011;28839;52.404;9.808;2023-04-01T16:27:41;1.58;;;1.48;;
43226;SDS011;28839;52.404;9.808;2023-04-01T16:34:41;2.12;;;1.60;;
43226;SDS011;28839;52.404;9.808;2023-04-01T16:41:41;2.42;;;1.60;;
43226;SDS011;28839;52.404;9.808;2023-04-01T16:48:49;2.25;;;1.60;;
43226;SDS011;28839;52.404;9.808;2023-04-01T16:55:54;2.20;;;1.73;;
43226;SDS011;28839;52.404;9.808;2023-04-01T17:03:02;3.25;;;1.52;;
43226;SDS011;28839;52.404;9.808;2023-04-01T17:10:05;1.65;;;1.55;;
43226;SDS011;28839;52.404;9.808;2023-04-01T17:17:29;1.80;;;1.37;;
43226;SDS011;28839;52.404;9.808;2023-04-01T17:24:35;2.22;;;1.98;;
43226;SDS011;28839;52.404;9.808;2023-04-01T17:31:41;2.03;;;1.85;;
43226;SDS011;28839;52.404;9.808;2023-04-01T17:38:54;2.40;;;1.92;;
43226;SDS011;28839;52.404;9.808;2023-04-01T17:46:00;2.15;;;1.80;;
43226;SDS011;28839;52.404;9.808;2023-04-01T17:53:03;3.12;;;1.77;;
43226;SDS011;28839;52.404;9.808;2023-04-01T18:00:14;3.17;;;2.28;;
43226;SDS011;28839;52.404;9.808;2023-04-01T18:07:24;21.27;;;2.60;;
43226;SDS011;28839;52.404;9.808;2023-04-01T18:14:43;2.22;;;1.77;;
43226;SDS011;28839;52.404;9.808;2023-04-01T18:28:42;4.93;;;2.30;;
43226;SDS011;28839;52.404;9.808;2023-04-01T18:35:45;2.15;;;1.55;;
43226;SDS011;28839;52.404;9.808;2023-04-01T18:42:46;5.15;;;2.53;;
43226;SDS011;28839;52.404;9.808;2023-04-01T18:49:52;2.33;;;2.12;;
43226;SDS011;28839;52.404;9.808;2023-04-01T18:56:58;2.67;;;2.22;;
43226;SDS011;28839;52.404;9.808;2023-04-01T19:03:58;4.72;;;2.53;;
43226;SDS011;28839;52.404;9.808;2023-04-01T19:11:03;3.90;;;2.90;;
43226;SDS011;28839;52.404;9.808;2023-04-01T19:18:06;3.80;;;2.40;;
43226;SDS011;28839;52.404;9.808;2023-04-01T19:25:35;3.95;;;3.55;;
43226;SDS011;28839;52.404;9.808;2023-04-01T19:32:36;4.57;;;3.33;;
43226;SDS011;28839;52.404;9.808;2023-04-01T19:39:41;5.85;;;3.95;;
43226;SDS011;28839;52.404;9.808;2023-04-01T19:46:43;3.58;;;2.72;;
43226;SDS011;28839;52.404;9.808;2023-04-01T19:53:43;3.90;;;3.47;;
43226;SDS011;28839;52.404;9.808;2023-04-01T20:00:47;2.90;;;2.33;;
43226;SDS011;28839;52.404;9.808;2023-04-01T20:07:47;4.20;;;3.80;;
43226;SDS011;28839;52.404;9.808;2023-04-01T20:14:47;3.92;;;3.22;;
43226;SDS011;28839;52.404;9.808;2023-04-01T20:21:43;6.57;;;3.87;;
43226;SDS011;28839;52.404;9.808;2023-04-01T20:28:43;10.85;;;4.85;;
43226;SDS011;28839;52.404;9.808;2023-04-01T20:35:45;26.33;;;5.70;;
43226;SDS011;28839;52.404;9.808;2023-04-01T20:50:28;7.43;;;5.10;;
43226;SDS011;28839;52.404;9.808;2023-04-01T20:57:30;7.78;;;5.40;;
43226;SDS011;28839;52.404;9.808;2023-04-01T21:04:30;8.93;;;6.55;;
43226;SDS011;28839;52.404;9.808;2023-04-01T21:11:41;8.77;;;5.60;;
43226;SDS011;28839;52.404;9.808;2023-04-01T21:18:52;9.55;;;5.62;;
43226;SDS011;28839;52.404;9.808;2023-04-01T21:26:06;9.57;;;5.95;;
43226;SDS011;28839;52.404;9.808;2023-04-01T21:33:27;6.15;;;5.00;;
43226;SDS011;28839;52.404;9.808;2023-04-01T21:40:40;9.80;;;6.18;;
43226;SDS011;28839;52.404;9.808;2023-04-01T21:47:57;11.87;;;6.70;;
43226;SDS011;28839;52.404;9.808;2023-04-01T22:10:20;11.00;;;5.87;;
43226;SDS011;28839;52.404;9.808;2023-04-01T22:17:24;10.20;;;6.18;;
43226;SDS011;28839;52.404;9.808;2023-04-01T22:24:24;9.43;;;5.10;;
43226;SDS011;28839;52.404;9.808;2023-04-01T22:31:26;11.38;;;6.87;;
43226;SDS011;28839;52.404;9.808;2023-04-01T22:38:30;9.82;;;5.90;;
43226;SDS011;28839;52.404;9.808;2023-04-01T22:45:38;13.60;;;6.75;;
43226;SDS011;28839;52.404;9.808;2023-04-01T22:52:49;13.13;;;7.07;;
43226;SDS011;28839;52.404;9.808;2023-04-01T22:59:48;12.35;;;7.60;;
43226;SDS011;28839;52.404;9.808;2023-04-01T23:06:51;13.80;;;6.80;;
43226;SDS011;28839;52.404;9.808;2023-04-01T23:13:49;13.80;;;6.78;;
43226;SDS011;28839;52.404;9.808;2023-04-01T23:20:56;11.38;;;6.35;;
43226;SDS011;28839;52.404;9.808;2023-04-01T23:27:59;11.25;;;6.90;;
43226;SDS011;28839;52.404;9.808;2023-04-01T23:35:11;11.77;;;6.20;;
43226;SDS011;28839;52.404;9.808;2023-04-01T23:42:13;12.50;;;6.30;;
43226;SDS011;28839;52.404;9.808;2023-04-01T23:49:12;13.02;;;5.55;;
43226;SDS011;28839;52.404;9.808;2023-04-01T23:56:08;10.80;;;5.07;;
